Eriksdale, Canada
Current Conditions -  °F | °C
As of 5:00 PM on Friday 24 Oct 2014 (Local Time) from CYPG Reporting Station
Few Clouds Few Clouds  
Wind Chill: 63°   Ceiling: Unl
Heat Index: 63°   Visibility: 15mi
Dew Point: 36°   Wind: 28mph
Humidity: 37%   Direction: 280°W
Pressure: 29.69"   Gusts: 39mph
Location:  50.87°N, 98.1°W
Report Text: CYPG 242200Z 28024G34KT 15SM FEW240 17/02 A2969 RMK CI1 LASTOBS/NEXT 271100 UTC SLP058
Loading
Personal Weather Stations






























Interactive Weather Map
Tropical Storm Tracking
New forecast layout! Learn more

10-Day Weather Forecast

Advertisements
Track Severe Weather on mobile